createdAt,value
2022-09-02T00:00:04.985Z,0.00
2022-09-02T00:01:04.963Z,0.00
2022-09-02T00:02:05.105Z,0.00
2022-09-02T00:03:05.112Z,0.00
2022-09-02T00:04:04.929Z,0.00
2022-09-02T00:05:04.920Z,0.00
2022-09-02T00:06:04.923Z,0.00
2022-09-02T00:07:04.898Z,0.00
2022-09-02T00:08:04.887Z,0.00
2022-09-02T00:09:04.873Z,0.00
2022-09-02T00:10:04.862Z,0.00
2022-09-02T00:11:04.852Z,0.00
2022-09-02T00:12:04.845Z,0.00
2022-09-02T00:13:04.828Z,0.00
2022-09-02T00:14:04.818Z,0.00
2022-09-02T00:15:04.808Z,0.00
2022-09-02T00:16:04.878Z,0.00
2022-09-02T00:17:04.784Z,0.00
2022-09-02T00:18:04.778Z,0.00
2022-09-02T00:19:04.762Z,0.00
2022-09-02T00:20:04.752Z,0.00
2022-09-02T00:21:04.742Z,0.00
2022-09-02T00:22:04.728Z,0.00
2022-09-02T00:23:04.722Z,0.00
2022-09-02T00:24:04.715Z,0.00
2022-09-02T00:25:04.697Z,0.00
2022-09-02T00:26:04.686Z,0.00
2022-09-02T00:27:04.673Z,0.00
2022-09-02T00:28:04.661Z,0.00
2022-09-02T00:29:04.649Z,0.00
2022-09-02T00:30:04.660Z,0.00
2022-09-02T00:31:04.627Z,0.00
2022-09-02T00:32:04.686Z,0.00
2022-09-02T00:33:04.605Z,0.00
2022-09-02T00:34:04.595Z,0.00
2022-09-02T00:35:04.583Z,0.00
2022-09-02T00:36:04.603Z,0.00
2022-09-02T00:37:04.562Z,0.00
2022-09-02T00:38:04.551Z,0.00
2022-09-02T00:39:04.539Z,0.00
2022-09-02T00:40:04.588Z,0.00
2022-09-02T00:41:04.515Z,0.00
2022-09-02T00:42:04.520Z,0.00
2022-09-02T00:43:04.497Z,0.00
2022-09-02T00:44:04.484Z,0.00
2022-09-02T00:45:04.472Z,0.00
2022-09-02T00:46:04.555Z,0.00
2022-09-02T00:47:04.450Z,0.00
2022-09-02T00:48:04.445Z,0.00
2022-09-02T00:49:04.426Z,0.00
2022-09-02T00:50:04.416Z,0.00
2022-09-02T00:51:04.406Z,0.00
2022-09-02T00:52:04.393Z,0.00
2022-09-02T00:53:04.383Z,0.00
2022-09-02T00:54:04.392Z,0.00
2022-09-02T00:55:04.360Z,0.00
2022-09-02T00:56:04.349Z,0.00
2022-09-02T00:57:04.338Z,0.00
2022-09-02T00:58:04.326Z,0.00
2022-09-02T00:59:05.321Z,0.00
2022-09-02T01:00:04.304Z,0.00
2022-09-02T01:01:04.416Z,0.00
2022-09-02T01:02:04.421Z,0.00
2022-09-02T01:03:04.271Z,0.00
2022-09-02T01:04:04.264Z,0.00
2022-09-02T01:05:04.269Z,0.00
2022-09-02T01:06:04.237Z,0.00
2022-09-02T01:07:04.228Z,0.00
2022-09-02T01:08:04.215Z,0.00
2022-09-02T01:09:04.204Z,0.00
2022-09-02T01:10:04.196Z,0.00
2022-09-02T01:11:04.210Z,0.00
2022-09-02T01:12:04.171Z,0.00
2022-09-02T01:13:04.159Z,0.00
2022-09-02T01:14:04.148Z,0.00
2022-09-02T01:15:04.137Z,0.00
2022-09-02T01:16:04.159Z,0.00
2022-09-02T01:17:04.122Z,0.00
2022-09-02T01:18:04.104Z,0.00
2022-09-02T01:19:04.092Z,0.00
2022-09-02T01:20:04.080Z,0.00
2022-09-02T01:21:04.074Z,0.00
2022-09-02T01:22:04.058Z,0.00
2022-09-02T01:23:04.063Z,0.00
2022-09-02T01:24:04.036Z,0.00
2022-09-02T01:25:04.024Z,0.00
2022-09-02T01:26:04.016Z,0.00
2022-09-02T01:27:04.003Z,0.00
2022-09-02T01:28:03.995Z,0.00
2022-09-02T01:29:03.988Z,0.00
2022-09-02T01:30:03.968Z,0.00
2022-09-02T01:31:04.063Z,0.00
2022-09-02T01:32:03.948Z,0.00
2022-09-02T01:33:03.936Z,0.00
2022-09-02T01:34:03.928Z,0.00
2022-09-02T01:35:03.935Z,0.00
2022-09-02T01:36:03.905Z,0.00
2022-09-02T01:37:03.891Z,0.00
2022-09-02T01:38:03.880Z,0.00
2022-09-02T01:39:03.868Z,0.00
2022-09-02T01:40:03.979Z,0.00
2022-09-02T01:41:03.875Z,0.00
2022-09-02T01:42:03.835Z,0.00
2022-09-02T01:43:03.824Z,0.00
2022-09-02T01:44:03.813Z,0.00
2022-09-02T01:45:03.804Z,0.00
2022-09-02T01:46:03.790Z,0.00
2022-09-02T01:47:03.856Z,0.00
2022-09-02T01:48:03.768Z,0.00
2022-09-02T01:49:03.759Z,0.00
2022-09-02T01:50:03.745Z,0.00
2022-09-02T01:51:03.735Z,0.00
2022-09-02T01:52:03.723Z,0.00
2022-09-02T01:53:03.732Z,0.00
2022-09-02T01:54:03.701Z,0.00
2022-09-02T01:55:03.691Z,0.00
2022-09-02T01:56:03.678Z,0.00
2022-09-02T01:57:03.668Z,0.00
2022-09-02T01:58:03.656Z,0.00
2022-09-02T01:59:04.155Z,0.00
2022-09-02T02:00:03.635Z,0.00
2022-09-02T02:01:03.677Z,0.00
2022-09-02T02:02:03.657Z,0.00
2022-09-02T02:03:03.600Z,0.00
2022-09-02T02:04:03.589Z,0.00
2022-09-02T02:05:03.644Z,0.00
2022-09-02T02:06:03.570Z,0.00
2022-09-02T02:07:03.558Z,0.00
2022-09-02T02:08:03.546Z,0.00
2022-09-02T02:09:03.533Z,0.00
2022-09-02T02:10:03.523Z,0.00
2022-09-02T02:11:03.532Z,0.00
2022-09-02T02:12:03.502Z,0.00
2022-09-02T02:13:03.489Z,0.00
2022-09-02T02:14:03.478Z,0.00
2022-09-02T02:15:03.468Z,0.00
2022-09-02T02:16:03.512Z,0.00
2022-09-02T02:17:03.473Z,0.00
2022-09-02T02:18:03.433Z,0.00
2022-09-02T02:19:03.422Z,0.00
2022-09-02T02:20:03.410Z,0.00
2022-09-02T02:21:03.400Z,0.00
2022-09-02T02:22:03.390Z,0.00
2022-09-02T02:23:03.384Z,0.00
2022-09-02T02:24:03.366Z,0.00
2022-09-02T02:25:03.366Z,0.00
2022-09-02T02:26:03.344Z,0.00
2022-09-02T02:27:03.335Z,0.00
2022-09-02T02:28:03.323Z,0.00
2022-09-02T02:29:03.317Z,0.00
2022-09-02T02:30:03.301Z,0.00
2022-09-02T02:31:03.371Z,0.00
2022-09-02T02:32:03.277Z,0.00
2022-09-02T02:33:03.266Z,0.00
2022-09-02T02:34:03.256Z,0.00
2022-09-02T02:35:03.250Z,0.00
2022-09-02T02:36:03.232Z,0.00
2022-09-02T02:37:03.224Z,0.00
2022-09-02T02:38:03.845Z,0.00
2022-09-02T02:39:03.199Z,0.00
2022-09-02T02:40:03.187Z,0.00
2022-09-02T02:41:03.183Z,0.00
2022-09-02T02:42:03.165Z,0.00
2022-09-02T02:43:03.154Z,0.00
2022-09-02T02:44:03.144Z,0.00
2022-09-02T02:45:03.132Z,0.00
2022-09-02T02:46:03.121Z,0.00
2022-09-02T02:47:03.153Z,0.00
2022-09-02T02:48:03.101Z,0.00
2022-09-02T02:49:03.090Z,0.00
2022-09-02T02:50:03.081Z,0.00
2022-09-02T02:51:03.064Z,0.00
2022-09-02T02:52:03.053Z,0.00
2022-09-02T02:53:03.052Z,0.00
2022-09-02T02:54:03.031Z,0.00
2022-09-02T02:55:03.021Z,0.00
2022-09-02T02:56:03.010Z,0.00
2022-09-02T02:57:03.163Z,0.00
2022-09-02T02:58:02.991Z,0.00
2022-09-02T02:59:02.982Z,0.00
2022-09-02T03:00:02.965Z,0.00
2022-09-02T03:01:02.954Z,0.00
2022-09-02T03:02:03.080Z,0.00
2022-09-02T03:03:02.998Z,0.00
2022-09-02T03:04:02.920Z,0.00
2022-09-02T03:05:02.939Z,0.00
2022-09-02T03:06:02.902Z,0.00
2022-09-02T03:07:02.887Z,0.00
2022-09-02T03:08:02.877Z,0.00
2022-09-02T03:09:02.864Z,0.00
2022-09-02T03:10:02.853Z,0.00
2022-09-02T03:11:02.847Z,0.00
2022-09-02T03:12:02.830Z,0.00
2022-09-02T03:13:02.819Z,0.00
2022-09-02T03:14:02.812Z,0.00
2022-09-02T03:15:02.796Z,0.00
2022-09-02T03:16:02.838Z,0.00
2022-09-02T03:17:02.806Z,0.00
2022-09-02T03:18:02.764Z,0.00
2022-09-02T03:19:02.752Z,0.00
2022-09-02T03:20:02.742Z,0.00
2022-09-02T03:21:02.729Z,0.00
2022-09-02T03:22:02.718Z,0.00
2022-09-02T03:23:02.728Z,0.00
2022-09-02T03:24:02.703Z,0.00
2022-09-02T03:25:02.685Z,0.00
2022-09-02T03:26:02.675Z,0.00
2022-09-02T03:27:02.663Z,0.00
2022-09-02T03:28:02.652Z,0.00
2022-09-02T03:29:02.649Z,0.00
2022-09-02T03:30:02.629Z,0.00
2022-09-02T03:31:02.657Z,0.00
2022-09-02T03:32:02.973Z,0.00
2022-09-02T03:33:04.253Z,0.00
2022-09-02T03:34:02.587Z,0.00
2022-09-02T03:35:02.581Z,0.00
2022-09-02T03:36:02.562Z,0.00
2022-09-02T03:37:02.552Z,0.00
2022-09-02T03:38:02.544Z,0.00
2022-09-02T03:39:02.528Z,0.00
2022-09-02T03:40:02.518Z,0.00
2022-09-02T03:41:02.521Z,0.00
2022-09-02T03:42:02.501Z,0.00
2022-09-02T03:43:02.484Z,0.00
2022-09-02T03:44:02.472Z,0.00
2022-09-02T03:45:02.462Z,0.00
2022-09-02T03:46:02.545Z,0.00
2022-09-02T03:47:02.445Z,0.00
2022-09-02T03:48:02.430Z,0.00
2022-09-02T03:49:02.416Z,0.00
2022-09-02T03:50:02.407Z,0.00
2022-09-02T03:51:02.394Z,0.00
2022-09-02T03:52:02.385Z,0.00
2022-09-02T03:53:02.404Z,0.00
2022-09-02T03:54:02.363Z,0.00
2022-09-02T03:55:02.351Z,0.00
2022-09-02T03:56:02.339Z,0.00
2022-09-02T03:57:02.329Z,4.00
2022-09-02T03:58:06.557Z,4.00
2022-09-02T03:59:03.325Z,4.00
2022-09-02T04:00:02.297Z,0.00
2022-09-02T04:01:02.284Z,4.00
2022-09-02T04:02:02.389Z,4.00
2022-09-02T04:03:02.338Z,4.00
2022-09-02T04:04:02.252Z,4.00
2022-09-02T04:05:02.261Z,4.00
2022-09-02T04:06:02.229Z,8.00
2022-09-02T04:07:02.218Z,4.00
2022-09-02T04:08:02.205Z,4.00
2022-09-02T04:09:02.194Z,8.00
2022-09-02T04:10:02.183Z,8.00
2022-09-02T04:11:02.187Z,12.00
2022-09-02T04:12:02.160Z,12.00
2022-09-02T04:13:02.149Z,12.00
2022-09-02T04:14:02.137Z,12.00
2022-09-02T04:15:02.127Z,16.00
2022-09-02T04:16:02.314Z,20.00
2022-09-02T04:17:02.112Z,20.00
2022-09-02T04:18:02.094Z,24.00
2022-09-02T04:19:02.109Z,24.00
2022-09-02T04:20:02.071Z,24.00
2022-09-02T04:21:02.060Z,28.00
2022-09-02T04:22:02.049Z,28.00
2022-09-02T04:23:02.044Z,32.00
2022-09-02T04:24:02.026Z,36.00
2022-09-02T04:25:02.016Z,36.00
2022-09-02T04:26:02.008Z,40.00
2022-09-02T04:27:04.445Z,40.00
2022-09-02T04:28:01.981Z,44.00
2022-09-02T04:29:02.001Z,48.00
2022-09-02T04:30:01.959Z,48.00
2022-09-02T04:31:02.041Z,52.00
2022-09-02T04:32:01.939Z,52.00
2022-09-02T04:33:01.928Z,56.00
2022-09-02T04:34:01.915Z,56.00
2022-09-02T04:35:01.927Z,60.00
2022-09-02T04:36:01.896Z,60.00
2022-09-02T04:37:01.881Z,68.00
2022-09-02T04:38:01.869Z,68.00
2022-09-02T04:39:01.863Z,72.00
2022-09-02T04:40:01.848Z,72.00
2022-09-02T04:41:01.844Z,76.00
2022-09-02T04:42:01.826Z,76.00
2022-09-02T04:43:01.814Z,76.00
2022-09-02T04:44:01.805Z,76.00
2022-09-02T04:45:01.791Z,84.00
2022-09-02T04:46:01.822Z,84.00
2022-09-02T04:47:01.776Z,88.00
2022-09-02T04:48:01.759Z,88.00
2022-09-02T04:49:01.746Z,92.00
2022-09-02T04:50:01.735Z,100.00
2022-09-02T04:51:01.724Z,104.00
2022-09-02T04:52:01.717Z,112.00
2022-09-02T04:53:01.717Z,116.00
2022-09-02T04:54:01.692Z,120.00
2022-09-02T04:55:01.680Z,120.00
2022-09-02T04:56:01.668Z,128.00
2022-09-02T04:57:01.658Z,132.00
2022-09-02T04:58:01.647Z,136.00
2022-09-02T04:59:01.641Z,136.00
2022-09-02T05:00:01.624Z,144.00
2022-09-02T05:01:01.782Z,144.00
2022-09-02T05:02:01.742Z,152.00
2022-09-02T05:03:01.667Z,156.00
2022-09-02T05:04:01.582Z,160.00
2022-09-02T05:05:01.598Z,164.00
2022-09-02T05:06:01.560Z,168.00
2022-09-02T05:07:01.553Z,172.00
2022-09-02T05:08:01.538Z,176.00
2022-09-02T05:09:01.528Z,176.00
2022-09-02T05:10:01.513Z,176.00
2022-09-02T05:11:01.525Z,184.00
2022-09-02T05:12:01.489Z,184.00
2022-09-02T05:13:01.488Z,188.00
2022-09-02T05:14:01.467Z,192.00
2022-09-02T05:15:01.458Z,196.00
2022-09-02T05:16:01.516Z,200.00
2022-09-02T05:17:06.642Z,204.00
2022-09-02T05:18:03.770Z,208.00
2022-09-02T05:19:01.412Z,216.00
2022-09-02T05:20:01.402Z,220.00
2022-09-02T05:21:01.410Z,220.00
2022-09-02T05:22:01.379Z,228.00
2022-09-02T05:23:01.383Z,232.00
2022-09-02T05:24:01.366Z,236.00
2022-09-02T05:25:01.346Z,236.00
2022-09-02T05:26:01.334Z,240.00
2022-09-02T05:27:01.321Z,244.00
2022-09-02T05:28:01.312Z,244.00
2022-09-02T05:29:01.308Z,248.00
2022-09-02T05:30:01.292Z,256.00
2022-09-02T05:31:01.333Z,264.00
2022-09-02T05:32:01.267Z,268.00
2022-09-02T05:33:01.256Z,272.00
2022-09-02T05:34:01.244Z,276.00
2022-09-02T05:35:01.254Z,280.00
2022-09-02T05:36:01.223Z,276.00
2022-09-02T05:37:01.211Z,280.00
2022-09-02T05:38:01.323Z,284.00
2022-09-02T05:39:01.188Z,288.00
2022-09-02T05:40:01.412Z,292.00
2022-09-02T05:41:01.198Z,292.00
2022-09-02T05:42:01.154Z,296.00
2022-09-02T05:43:01.145Z,300.00
2022-09-02T05:44:01.503Z,308.00
2022-09-02T05:45:01.121Z,308.00
2022-09-02T05:46:01.192Z,308.00
2022-09-02T05:47:01.114Z,300.00
2022-09-02T05:48:01.088Z,304.00
2022-09-02T05:49:01.080Z,312.00
2022-09-02T05:50:01.069Z,312.00
2022-09-02T05:51:01.056Z,308.00
2022-09-02T05:52:01.042Z,316.00
2022-09-02T05:53:01.053Z,316.00
2022-09-02T05:54:01.020Z,320.00
2022-09-02T05:55:01.011Z,320.00
2022-09-02T05:56:00.998Z,320.00
2022-09-02T05:57:00.991Z,324.00
2022-09-02T05:58:00.977Z,328.00
2022-09-02T05:59:01.869Z,332.00
2022-09-02T06:00:00.954Z,340.00
2022-09-02T06:01:00.943Z,348.00
2022-09-02T06:02:01.006Z,356.00
2022-09-02T06:03:00.978Z,356.00
2022-09-02T06:04:00.909Z,348.00
2022-09-02T06:05:00.904Z,344.00
2022-09-02T06:06:06.407Z,324.00
2022-09-02T06:07:01.878Z,308.00
2022-09-02T06:08:00.866Z,288.00
2022-09-02T06:09:00.854Z,276.00
2022-09-02T06:10:00.845Z,272.00
2022-09-02T06:11:00.838Z,272.00
2022-09-02T06:12:00.820Z,284.00
2022-09-02T06:13:00.809Z,296.00
2022-09-02T06:14:00.799Z,312.00
2022-09-02T06:15:00.786Z,320.00
2022-09-02T06:16:00.835Z,332.00
2022-09-02T06:17:00.809Z,356.00
2022-09-02T06:18:00.754Z,392.00
2022-09-02T06:19:00.742Z,424.00
2022-09-02T06:20:00.732Z,456.00
2022-09-02T06:21:00.722Z,484.00
2022-09-02T06:22:00.709Z,512.00
2022-09-02T06:23:00.703Z,532.00
2022-09-02T06:24:00.694Z,536.00
2022-09-02T06:25:00.674Z,536.00
2022-09-02T06:26:00.665Z,536.00
2022-09-02T06:27:00.652Z,520.00
2022-09-02T06:28:04.110Z,504.00
2022-09-02T06:29:01.646Z,484.00
2022-09-02T06:30:00.622Z,472.00
2022-09-02T06:31:00.697Z,464.00
2022-09-02T06:32:00.600Z,456.00
2022-09-02T06:33:00.587Z,456.00
2022-09-02T06:34:00.576Z,480.00
2022-09-02T06:35:00.570Z,524.00
2022-09-02T06:36:00.552Z,568.00
2022-09-02T06:37:00.558Z,604.00
2022-09-02T06:38:00.531Z,632.00
2022-09-02T06:39:00.524Z,648.00
2022-09-02T06:40:00.506Z,652.00
2022-09-02T06:41:00.518Z,656.00
2022-09-02T06:42:00.485Z,636.00
2022-09-02T06:43:00.473Z,608.00
2022-09-02T06:44:00.463Z,612.00
2022-09-02T06:45:00.451Z,608.00
2022-09-02T06:46:00.520Z,628.00
2022-09-02T06:47:00.439Z,640.00
2022-09-02T06:48:00.423Z,688.00
2022-09-02T06:49:00.413Z,728.00
2022-09-02T06:50:00.396Z,740.00
2022-09-02T06:51:00.384Z,728.00
2022-09-02T06:52:00.374Z,704.00
2022-09-02T06:53:00.375Z,692.00
2022-09-02T06:54:00.754Z,704.00
2022-09-02T06:55:00.341Z,740.00
2022-09-02T06:56:00.332Z,776.00
2022-09-02T06:57:00.317Z,808.00
2022-09-02T06:58:00.307Z,824.00
2022-09-02T06:59:00.312Z,824.00
2022-09-02T07:00:02.386Z,824.00
2022-09-02T07:01:00.307Z,832.00
2022-09-02T07:02:00.501Z,832.00
2022-09-02T07:03:00.254Z,832.00
2022-09-02T07:04:00.241Z,840.00
2022-09-02T07:05:00.234Z,848.00
2022-09-02T07:06:00.217Z,856.00
2022-09-02T07:07:00.209Z,864.00
2022-09-02T07:08:00.194Z,868.00
2022-09-02T07:09:00.184Z,852.00
2022-09-02T07:10:00.176Z,832.00
2022-09-02T07:11:00.169Z,804.00
2022-09-02T07:12:04.276Z,760.00
2022-09-02T07:13:01.139Z,728.00
2022-09-02T07:14:00.128Z,720.00
2022-09-02T07:15:00.116Z,720.00
2022-09-02T07:16:00.114Z,728.00
2022-09-02T07:17:00.441Z,732.00
2022-09-02T07:18:00.095Z,704.00
2022-09-02T07:19:00.075Z,624.00
2022-09-02T07:20:00.061Z,592.00
2022-09-02T07:21:00.057Z,556.00
2022-09-02T07:22:00.042Z,508.00
2022-09-02T07:23:00.036Z,480.00
2022-09-02T07:24:00.017Z,472.00
2022-09-02T07:25:00.004Z,468.00
2022-09-02T07:25:59.993Z,464.00
2022-09-02T07:26:59.983Z,452.00
2022-09-02T07:27:59.972Z,432.00
2022-09-02T07:28:59.965Z,420.00
2022-09-02T07:29:59.949Z,408.00
2022-09-02T07:31:00.172Z,404.00
2022-09-02T07:31:59.932Z,404.00
2022-09-02T07:32:59.916Z,448.00
2022-09-02T07:33:59.906Z,480.00
2022-09-02T07:34:59.901Z,424.00
2022-09-02T07:35:59.882Z,388.00
2022-09-02T07:37:04.178Z,388.00
2022-09-02T07:38:00.859Z,432.00
2022-09-02T07:38:59.848Z,396.00
2022-09-02T07:39:59.839Z,404.00
2022-09-02T07:40:59.831Z,408.00
2022-09-02T07:41:59.816Z,484.00
2022-09-02T07:42:59.807Z,496.00
2022-09-02T07:44:00.004Z,504.00
2022-09-02T07:44:59.781Z,524.00
2022-09-02T07:45:59.851Z,500.00
2022-09-02T07:46:59.765Z,500.00
2022-09-02T07:47:59.749Z,552.00
2022-09-02T07:48:59.739Z,584.00
2022-09-02T07:50:18.186Z,588.00
2022-09-02T07:51:00.732Z,600.00
2022-09-02T07:51:59.703Z,608.00
2022-09-02T07:52:59.697Z,628.00
2022-09-02T07:53:59.681Z,632.00
2022-09-02T07:54:59.674Z,628.00
2022-09-02T07:55:59.658Z,636.00
2022-09-02T07:56:59.648Z,648.00
2022-09-02T07:57:59.636Z,656.00
2022-09-02T07:58:59.630Z,600.00
2022-09-02T07:59:59.614Z,624.00
2022-09-02T08:00:59.673Z,620.00
2022-09-02T08:01:59.640Z,616.00
2022-09-02T08:02:59.726Z,624.00
2022-09-02T08:04:01.600Z,612.00
2022-09-02T08:04:59.569Z,596.00
2022-09-02T08:05:59.547Z,608.00
2022-09-02T08:06:59.536Z,600.00
2022-09-02T08:07:59.526Z,592.00
2022-09-02T08:08:59.513Z,584.00
2022-09-02T08:09:59.502Z,580.00
2022-09-02T08:10:59.496Z,580.00
2022-09-02T08:11:59.480Z,584.00
2022-09-02T08:12:59.468Z,584.00
2022-09-02T08:13:59.459Z,580.00
2022-09-02T08:14:59.447Z,588.00
2022-09-02T08:15:59.436Z,588.00
2022-09-02T08:16:59.465Z,592.00
2022-09-02T08:17:59.414Z,592.00
2022-09-02T08:18:59.405Z,596.00
2022-09-02T08:19:59.391Z,600.00
2022-09-02T08:20:59.379Z,604.00
2022-09-02T08:21:59.368Z,604.00
2022-09-02T08:23:10.859Z,612.00
2022-09-02T08:24:00.367Z,612.00
2022-09-02T08:24:59.334Z,616.00
2022-09-02T08:25:59.325Z,620.00
2022-09-02T08:26:59.312Z,628.00
2022-09-02T08:27:59.305Z,628.00
2022-09-02T08:28:59.297Z,636.00
2022-09-02T08:29:59.280Z,640.00
2022-09-02T08:30:59.496Z,648.00
2022-09-02T08:31:59.458Z,648.00
2022-09-02T08:32:59.245Z,648.00
2022-09-02T08:33:59.235Z,656.00
2022-09-02T08:34:59.240Z,660.00
2022-09-02T08:35:59.212Z,664.00
2022-09-02T08:36:59.200Z,668.00
2022-09-02T08:37:59.190Z,668.00
2022-09-02T08:38:59.195Z,668.00
2022-09-02T08:39:59.167Z,672.00
2022-09-02T08:40:59.162Z,676.00
2022-09-02T08:42:59.134Z,684.00
2022-09-02T08:43:59.124Z,684.00
2022-09-02T08:44:59.112Z,696.00
2022-09-02T08:45:59.204Z,700.00
2022-09-02T08:46:59.095Z,704.00
2022-09-02T08:47:59.078Z,708.00
2022-09-02T08:48:59.066Z,704.00
2022-09-02T08:49:59.056Z,708.00
2022-09-02T08:50:59.046Z,712.00
2022-09-02T08:52:00.912Z,716.00
2022-09-02T08:52:59.029Z,728.00
2022-09-02T08:53:59.033Z,728.00
2022-09-02T08:54:59.000Z,736.00
2022-09-02T08:55:58.990Z,744.00
2022-09-02T08:56:58.977Z,760.00
2022-09-02T08:57:59.018Z,672.00
2022-09-02T08:58:58.987Z,660.00
2022-09-02T08:59:58.944Z,660.00
2022-09-02T09:00:59.002Z,636.00
2022-09-02T09:02:00.864Z,588.00
2022-09-02T09:02:58.910Z,592.00
2022-09-02T09:03:58.900Z,620.00
2022-09-02T09:04:58.895Z,596.00
2022-09-02T09:05:58.876Z,708.00
2022-09-02T09:06:58.867Z,656.00
2022-09-02T09:07:58.854Z,680.00
2022-09-02T09:08:58.844Z,716.00
2022-09-02T09:09:58.833Z,752.00
2022-09-02T09:10:58.829Z,896.00
2022-09-02T09:11:58.811Z,892.00
2022-09-02T09:12:58.800Z,1056.00
2022-09-02T09:13:58.795Z,1108.00
2022-09-02T09:14:58.776Z,1124.00
2022-09-02T09:15:58.809Z,1096.00
2022-09-02T09:16:58.837Z,1056.00
2022-09-02T09:17:58.744Z,1012.00
2022-09-02T09:18:58.734Z,1016.00
2022-09-02T09:19:58.732Z,1096.00
2022-09-02T09:20:58.709Z,1192.00
2022-09-02T09:21:58.698Z,1280.00
2022-09-02T09:22:58.697Z,1108.00
2022-09-02T09:23:58.679Z,1020.00
2022-09-02T09:24:58.664Z,972.00
2022-09-02T09:25:58.653Z,952.00
2022-09-02T09:26:58.644Z,972.00
2022-09-02T09:27:58.632Z,976.00
2022-09-02T09:28:58.642Z,992.00
2022-09-02T09:29:58.609Z,1008.00
2022-09-02T09:30:58.615Z,1016.00
2022-09-02T09:31:58.603Z,1024.00
2022-09-02T09:32:58.577Z,1044.00
2022-09-02T09:33:58.566Z,1068.00
2022-09-02T09:34:58.570Z,1088.00
2022-09-02T09:35:58.542Z,1108.00
2022-09-02T09:36:58.532Z,1144.00
2022-09-02T09:37:58.521Z,1168.00
2022-09-02T09:38:58.515Z,1184.00
2022-09-02T09:39:58.497Z,1196.00
2022-09-02T09:40:58.502Z,1224.00
2022-09-02T09:41:58.514Z,1240.00
2022-09-02T09:42:58.537Z,1240.00
2022-09-02T09:43:58.454Z,1228.00
2022-09-02T09:44:58.444Z,1236.00
2022-09-02T09:45:58.504Z,1256.00
2022-09-02T09:46:58.442Z,1264.00
2022-09-02T09:47:58.540Z,1300.00
2022-09-02T09:48:58.397Z,1340.00
2022-09-02T09:49:58.388Z,1364.00
2022-09-02T09:50:58.377Z,1380.00
2022-09-02T09:51:58.364Z,1388.00
2022-09-02T09:52:58.360Z,1380.00
2022-09-02T09:53:58.342Z,1388.00
2022-09-02T09:54:58.331Z,1396.00
2022-09-02T09:55:58.320Z,1412.00
2022-09-02T09:56:58.308Z,1496.00
2022-09-02T09:57:58.299Z,1504.00
2022-09-02T09:58:58.293Z,1508.00
2022-09-02T09:59:58.279Z,1560.00
2022-09-02T10:00:58.311Z,1620.00
2022-09-02T10:01:58.336Z,1796.00
2022-09-02T10:02:58.241Z,2064.00
2022-09-02T10:03:58.231Z,2296.00
2022-09-02T10:04:58.226Z,2460.00
2022-09-02T10:05:58.211Z,2464.00
2022-09-02T10:06:58.199Z,1920.00
2022-09-02T10:07:58.187Z,1632.00
2022-09-02T10:08:58.177Z,1608.00
2022-09-02T10:09:58.165Z,1564.00
2022-09-02T10:10:58.168Z,1756.00
2022-09-02T10:11:58.149Z,1740.00
2022-09-02T10:12:58.157Z,1720.00
2022-09-02T10:13:58.169Z,1680.00
2022-09-02T10:14:58.109Z,1568.00
2022-09-02T10:15:58.170Z,1432.00
2022-09-02T10:16:58.102Z,1492.00
2022-09-02T10:17:58.075Z,1740.00
2022-09-02T10:18:58.066Z,1860.00
2022-09-02T10:19:58.052Z,2520.00
2022-09-02T10:21:13.905Z,2464.00
2022-09-02T10:21:59.037Z,2320.00
2022-09-02T10:22:59.560Z,1696.00
2022-09-02T10:23:58.012Z,1256.00
2022-09-02T10:24:57.997Z,1112.00
2022-09-02T10:25:57.987Z,1096.00
2022-09-02T10:26:57.979Z,1200.00
2022-09-02T10:27:57.970Z,1304.00
2022-09-02T10:28:59.811Z,1436.00
2022-09-02T10:29:57.945Z,1360.00
2022-09-02T10:30:57.930Z,1224.00
2022-09-02T10:31:58.008Z,1156.00
2022-09-02T10:32:57.908Z,1128.00
2022-09-02T10:33:57.921Z,1076.00
2022-09-02T10:34:57.923Z,1032.00
2022-09-02T10:35:57.877Z,1120.00
2022-09-02T10:36:57.863Z,1336.00
2022-09-02T10:37:57.855Z,1672.00
2022-09-02T10:38:57.843Z,2752.00
2022-09-02T10:39:57.846Z,2772.00
2022-09-02T10:40:57.898Z,2844.00
2022-09-02T10:41:57.810Z,2860.00
2022-09-02T10:42:57.798Z,2904.00
2022-09-02T10:43:57.788Z,3080.00
2022-09-02T10:44:59.037Z,3308.00
2022-09-02T10:45:57.776Z,2624.00
2022-09-02T10:46:57.760Z,3632.00
2022-09-02T10:47:57.744Z,2832.00
2022-09-02T10:48:57.732Z,2148.00
2022-09-02T10:49:57.721Z,2432.00
2022-09-02T10:50:57.709Z,2744.00
2022-09-02T10:51:57.706Z,3472.00
2022-09-02T10:52:57.692Z,4024.00
2022-09-02T10:53:57.680Z,3580.00
2022-09-02T10:54:57.665Z,3204.00
2022-09-02T10:55:57.655Z,2732.00
2022-09-02T10:56:57.642Z,2936.00
2022-09-02T10:57:57.638Z,3060.00
2022-09-02T10:58:57.620Z,3076.00
2022-09-02T10:59:57.609Z,2660.00
2022-09-02T11:00:57.697Z,1968.00
2022-09-02T11:01:57.588Z,2164.00
2022-09-02T11:02:57.578Z,1752.00
2022-09-02T11:03:57.675Z,1552.00
2022-09-02T11:04:57.554Z,1448.00
2022-09-02T11:05:57.543Z,1420.00
2022-09-02T11:07:04.809Z,1492.00
2022-09-02T11:07:58.524Z,1584.00
2022-09-02T11:08:57.509Z,1632.00
2022-09-02T11:09:57.505Z,1936.00
2022-09-02T11:10:57.487Z,2784.00
2022-09-02T11:12:00.073Z,3592.00
2022-09-02T11:12:57.466Z,5576.00
2022-09-02T11:13:57.455Z,8084.00
2022-09-02T11:14:57.442Z,9320.00
2022-09-02T11:15:57.499Z,9668.00
2022-09-02T11:16:57.422Z,8572.00
2022-09-02T11:17:57.413Z,7276.00
2022-09-02T11:18:57.399Z,6860.00
2022-09-02T11:19:57.388Z,6596.00
2022-09-02T11:20:57.377Z,6828.00
2022-09-02T11:21:57.390Z,7000.00
2022-09-02T11:22:57.358Z,6636.00
2022-09-02T11:23:57.344Z,6000.00
2022-09-02T11:24:57.336Z,5220.00
2022-09-02T11:25:57.322Z,4948.00
2022-09-02T11:26:57.310Z,5164.00
2022-09-02T11:27:57.307Z,3064.00
2022-09-02T11:28:57.291Z,1744.00
2022-09-02T11:29:57.277Z,1536.00
2022-09-02T11:30:57.269Z,1524.00
2022-09-02T11:31:57.256Z,1472.00
2022-09-02T11:32:57.244Z,1404.00
2022-09-02T11:33:57.346Z,1360.00
2022-09-02T11:34:57.223Z,1272.00
2022-09-02T11:35:57.212Z,1288.00
2022-09-02T11:36:57.201Z,1280.00
2022-09-02T11:37:57.193Z,1308.00
2022-09-02T11:38:58.486Z,1308.00
2022-09-02T11:40:11.729Z,1312.00
2022-09-02T11:41:58.221Z,1228.00
2022-09-02T11:42:57.139Z,1156.00
2022-09-02T11:43:57.140Z,1140.00
2022-09-02T11:44:57.114Z,1220.00
2022-09-02T11:45:57.315Z,1416.00
2022-09-02T11:46:57.170Z,1856.00
2022-09-02T11:47:57.081Z,3616.00
2022-09-02T11:48:57.074Z,10264.00
2022-09-02T11:49:57.059Z,52288.00
2022-09-02T11:50:57.047Z,53536.00
2022-09-02T11:51:57.044Z,56032.00
2022-09-02T11:52:57.026Z,56160.00
2022-09-02T11:53:57.014Z,54720.00
2022-09-02T11:55:00.679Z,54784.00
2022-09-02T11:55:57.993Z,57504.00
2022-09-02T11:56:56.982Z,47392.00
2022-09-02T11:57:56.978Z,58272.00
2022-09-02T11:58:56.960Z,57248.00
2022-09-02T11:59:56.949Z,47488.00
2022-09-02T12:00:56.938Z,8180.00
2022-09-02T12:01:56.928Z,2000.00
2022-09-02T12:02:56.921Z,1576.00
2022-09-02T12:05:00.581Z,1240.00
2022-09-02T12:05:57.070Z,1204.00
2022-09-02T12:06:56.984Z,1184.00
2022-09-02T12:07:56.861Z,1160.00
2022-09-02T12:08:56.851Z,1108.00
2022-09-02T12:09:56.961Z,1052.00
2022-09-02T12:10:56.830Z,1020.00
2022-09-02T12:11:56.818Z,1000.00
2022-09-02T12:12:56.808Z,984.00
2022-09-02T12:13:56.801Z,996.00
2022-09-02T12:14:56.790Z,1072.00
2022-09-02T12:15:56.825Z,1168.00
2022-09-02T12:16:56.765Z,1264.00
2022-09-02T12:17:56.754Z,1396.00
2022-09-02T12:18:56.743Z,1568.00
2022-09-02T12:19:56.733Z,1824.00
2022-09-02T12:20:56.722Z,2072.00
2022-09-02T12:21:56.718Z,2252.00
2022-09-02T12:22:56.699Z,2332.00
2022-09-02T12:23:56.751Z,2104.00
2022-09-02T12:24:56.678Z,1728.00
2022-09-02T12:25:56.667Z,1656.00
2022-09-02T12:26:56.655Z,1728.00
2022-09-02T12:27:56.651Z,1836.00
2022-09-02T12:28:56.634Z,2032.00
2022-09-02T12:29:56.627Z,2484.00
2022-09-02T12:30:56.749Z,2396.00
2022-09-02T12:31:56.601Z,2848.00
2022-09-02T12:32:56.591Z,3304.00
2022-09-02T12:33:56.590Z,7164.00
2022-09-02T12:34:56.569Z,6972.00
2022-09-02T12:35:56.559Z,9708.00
2022-09-02T12:36:56.546Z,45504.00
2022-09-02T12:37:56.534Z,48512.00
2022-09-02T12:38:56.525Z,56064.00
2022-09-02T12:39:56.535Z,44512.00
2022-09-02T12:40:56.564Z,7432.00